createdAt,value
2017-11-04T00:00:11.749Z,49.68
2017-11-04T00:00:44.841Z,49.9
2017-11-04T00:01:17.097Z,49.68
2017-11-04T00:01:49.295Z,49.77
2017-11-04T00:02:21.432Z,49.87
2017-11-04T00:02:53.648Z,49.6
2017-11-04T00:03:25.777Z,49.6
2017-11-04T00:03:57.984Z,49.7
2017-11-04T00:04:30.133Z,49.68
2017-11-04T00:05:02.274Z,49.6
2017-11-04T00:05:34.409Z,49.58
2017-11-04T00:06:06.485Z,49.7
2017-11-04T00:06:38.603Z,49.58
2017-11-04T00:07:10.767Z,49.77
2017-11-04T00:07:43.354Z,49.6
2017-11-04T00:08:15.469Z,49.68
2017-11-04T00:08:47.613Z,49.68
2017-11-04T00:09:19.852Z,49.68
2017-11-04T00:09:52.033Z,49.58
2017-11-04T00:10:24.107Z,49.77
2017-11-04T00:10:56.232Z,49.68
2017-11-04T00:11:28.299Z,49.68
2017-11-04T00:12:00.488Z,49.48
2017-11-04T00:12:32.553Z,49.87
2017-11-04T00:13:04.806Z,49.77
2017-11-04T00:13:37.061Z,49.87
2017-11-04T00:14:09.130Z,49.68
2017-11-04T00:14:41.230Z,49.8
2017-11-04T00:15:13.375Z,49.58
2017-11-04T00:15:46.332Z,49.77
2017-11-04T00:16:18.428Z,49.77
2017-11-04T00:16:50.597Z,49.87
2017-11-04T00:17:22.750Z,49.77
2017-11-04T00:17:54.996Z,49.68
2017-11-04T00:18:27.081Z,49.48
2017-11-04T00:18:59.219Z,49.9
2017-11-04T00:19:31.349Z,49.87
2017-11-04T00:20:03.476Z,49.48
2017-11-04T00:20:35.693Z,49.51
2017-11-04T00:21:07.822Z,49.58
2017-11-04T00:21:39.851Z,49.58
2017-11-04T00:22:11.867Z,49.58
2017-11-04T00:22:44.000Z,49.7
2017-11-04T00:23:16.860Z,49.48
2017-11-04T00:23:48.944Z,49.77
2017-11-04T00:24:21.087Z,49.77
2017-11-04T00:24:53.221Z,49.48
2017-11-04T00:25:25.385Z,49.77
2017-11-04T00:25:57.577Z,49.6
2017-11-04T00:26:29.612Z,49.68
2017-11-04T00:27:01.757Z,49.68
2017-11-04T00:27:33.943Z,49.58
2017-11-04T00:28:06.074Z,49.68
2017-11-04T00:28:38.329Z,49.68
2017-11-04T00:29:10.421Z,49.77
2017-11-04T00:29:42.670Z,49.77
2017-11-04T00:30:14.826Z,49.58
2017-11-04T00:30:46.906Z,49.77
2017-11-04T00:31:19.105Z,49.68
2017-11-04T00:31:51.234Z,49.87
2017-11-04T00:32:23.389Z,49.77
2017-11-04T00:32:55.555Z,49.68
2017-11-04T00:33:27.761Z,49.77
2017-11-04T00:33:59.872Z,49.68
2017-11-04T00:34:31.962Z,49.8
2017-11-04T00:35:04.111Z,49.87
2017-11-04T00:35:36.210Z,49.68
2017-11-04T00:36:08.376Z,49.68
2017-11-04T00:36:40.622Z,49.77
2017-11-04T00:37:12.767Z,49.39
2017-11-04T00:37:44.900Z,49.96
2017-11-04T00:38:16.977Z,49.48
2017-11-04T00:38:49.116Z,49.29
2017-11-04T00:39:21.258Z,49.48
2017-11-04T00:39:53.405Z,49.51
2017-11-04T00:40:25.495Z,49.29
2017-11-04T00:40:57.698Z,49.48
2017-11-04T00:41:29.730Z,49.29
2017-11-04T00:42:01.918Z,49.77
2017-11-04T00:42:34.005Z,49.1
2017-11-04T00:43:06.184Z,49.1
2017-11-04T00:43:38.414Z,49.6
2017-11-04T00:44:10.597Z,49.51
2017-11-04T00:44:42.782Z,49.39
2017-11-04T00:45:14.866Z,49.48
2017-11-04T00:45:47.054Z,49
2017-11-04T00:46:19.111Z,49.29
2017-11-04T00:46:51.204Z,49.48
2017-11-04T00:47:23.298Z,49.39
2017-11-04T00:47:55.494Z,49.58
2017-11-04T00:48:27.720Z,49.41
2017-11-04T00:48:59.877Z,49.8
2017-11-04T00:49:32.008Z,49.29
2017-11-04T00:50:04.190Z,49.68
2017-11-04T00:50:36.325Z,49.22
2017-11-04T00:51:08.356Z,49.87
2017-11-04T00:51:40.588Z,49.32
2017-11-04T00:52:12.641Z,49.51
2017-11-04T00:52:44.794Z,49.29
2017-11-04T00:53:16.928Z,49.77
2017-11-04T00:53:49.009Z,49.48
2017-11-04T00:54:21.079Z,49.87
2017-11-04T00:54:53.210Z,49.19
2017-11-04T00:55:25.263Z,49.7
2017-11-04T00:55:57.447Z,49.1
2017-11-04T00:56:29.723Z,49.19
2017-11-04T00:57:01.921Z,49.1
2017-11-04T00:57:34.011Z,49.29
2017-11-04T00:58:06.183Z,49.6
2017-11-04T00:58:38.315Z,49.19
2017-11-04T00:59:10.450Z,49.48
2017-11-04T00:59:42.690Z,49.48
2017-11-04T01:00:14.818Z,49.29
2017-11-04T01:00:46.871Z,49.12
2017-11-04T01:01:19.071Z,49.29
2017-11-04T01:01:51.255Z,49.22
2017-11-04T01:02:23.563Z,49.19
2017-11-04T01:02:55.817Z,49.6
2017-11-04T01:03:27.970Z,49.58
2017-11-04T01:04:00.058Z,49.32
2017-11-04T01:04:32.379Z,49.22
2017-11-04T01:05:04.524Z,49.22
2017-11-04T01:05:36.601Z,49.51
2017-11-04T01:06:08.795Z,49.6
2017-11-04T01:06:40.928Z,49.58
2017-11-04T01:07:13.126Z,49.39
2017-11-04T01:07:45.381Z,49.41
2017-11-04T01:08:18.497Z,49.6
2017-11-04T01:08:50.764Z,49.19
2017-11-04T01:09:22.924Z,49.32
2017-11-04T01:09:55.185Z,49.32
2017-11-04T01:10:27.369Z,49.19
2017-11-04T01:10:59.432Z,49.41
2017-11-04T01:11:31.659Z,49.41
2017-11-04T01:12:03.868Z,49.22
2017-11-04T01:12:36.004Z,49.6
2017-11-04T01:13:08.173Z,49.29
2017-11-04T01:13:40.263Z,49.41
2017-11-04T01:14:12.398Z,49.32
2017-11-04T01:14:44.489Z,49.39
2017-11-04T01:15:16.623Z,49.22
2017-11-04T01:15:48.814Z,49.41
2017-11-04T01:16:21.079Z,49.32
2017-11-04T01:16:53.258Z,49.19
2017-11-04T01:17:25.356Z,49.12
2017-11-04T01:17:57.495Z,49.19
2017-11-04T01:18:29.692Z,49.48
2017-11-04T01:19:01.818Z,49.19
2017-11-04T01:19:33.977Z,49.22
2017-11-04T01:20:06.123Z,49.02
2017-11-04T01:20:38.141Z,49.12
2017-11-04T01:21:10.269Z,49.32
2017-11-04T01:21:42.467Z,49.19
2017-11-04T01:22:14.671Z,49.02
2017-11-04T01:22:46.793Z,49.29
2017-11-04T01:23:18.937Z,49.32
2017-11-04T01:23:50.960Z,49.02
2017-11-04T01:24:23.089Z,49.19
2017-11-04T01:24:55.107Z,49.22
2017-11-04T01:25:27.239Z,49.32
2017-11-04T01:25:59.439Z,49.32
2017-11-04T01:26:31.603Z,49.41
2017-11-04T01:27:03.825Z,49.12
2017-11-04T01:27:35.916Z,49.32
2017-11-04T01:28:07.982Z,49.48
2017-11-04T01:28:40.061Z,49.32
2017-11-04T01:29:12.240Z,49.12
2017-11-04T01:29:44.446Z,48.83
2017-11-04T01:30:16.638Z,48.83
2017-11-04T01:30:48.729Z,49.02
2017-11-04T01:31:20.872Z,49.22
2017-11-04T01:31:53.174Z,49.12
2017-11-04T01:32:25.324Z,48.83
2017-11-04T01:32:57.576Z,48.93
2017-11-04T01:33:29.776Z,49.1
2017-11-04T01:34:01.866Z,49.1
2017-11-04T01:34:34.112Z,49.02
2017-11-04T01:35:06.140Z,49.1
2017-11-04T01:35:38.280Z,49.19
2017-11-04T01:36:10.348Z,49.22
2017-11-04T01:36:42.401Z,49.22
2017-11-04T01:37:14.468Z,49.12
2017-11-04T01:37:46.549Z,48.93
2017-11-04T01:38:18.643Z,49.02
2017-11-04T01:38:50.771Z,49.32
2017-11-04T01:39:22.907Z,49.19
2017-11-04T01:39:55.037Z,48.93
2017-11-04T01:40:27.183Z,49.12
2017-11-04T01:40:59.244Z,49.02
2017-11-04T01:41:31.382Z,48.93
2017-11-04T01:42:03.586Z,49.12
2017-11-04T01:42:35.820Z,49.02
2017-11-04T01:43:08.075Z,48.93
2017-11-04T01:43:40.194Z,48.9
2017-11-04T01:44:12.358Z,49.02
2017-11-04T01:44:44.478Z,48.64
2017-11-04T01:45:16.626Z,48.93
2017-11-04T01:45:48.806Z,48.93
2017-11-04T01:46:21.800Z,48.93
2017-11-04T01:46:54.017Z,49.02
2017-11-04T01:47:26.269Z,49.12
2017-11-04T01:47:58.409Z,48.93
2017-11-04T01:48:30.596Z,48.93
2017-11-04T01:49:02.709Z,48.64
2017-11-04T01:49:34.736Z,48.93
2017-11-04T01:50:06.864Z,49.12
2017-11-04T01:50:38.993Z,49.02
2017-11-04T01:51:11.189Z,49.12
2017-11-04T01:51:43.300Z,49.12
2017-11-04T01:52:15.445Z,49.02
2017-11-04T01:52:47.655Z,48.83
2017-11-04T01:53:19.813Z,48.83
2017-11-04T01:53:51.849Z,48.93
2017-11-04T01:54:23.984Z,48.83
2017-11-04T01:54:56.161Z,48.93
2017-11-04T01:55:28.246Z,48.93
2017-11-04T01:56:00.340Z,48.93
2017-11-04T01:56:32.410Z,48.83
2017-11-04T01:57:04.546Z,48.93
2017-11-04T01:57:36.705Z,49.02
2017-11-04T01:58:08.887Z,48.64
2017-11-04T01:58:40.981Z,48.93
2017-11-04T01:59:13.056Z,48.93
2017-11-04T01:59:45.127Z,48.93
2017-11-04T02:00:17.335Z,48.64
2017-11-04T02:00:49.538Z,49.02
2017-11-04T02:01:21.573Z,48.93
2017-11-04T02:01:53.768Z,48.93
2017-11-04T02:02:26.007Z,48.74
2017-11-04T02:02:58.077Z,48.93
2017-11-04T02:03:30.196Z,48.64
2017-11-04T02:04:02.222Z,48.83
2017-11-04T02:04:34.399Z,48.83
2017-11-04T02:05:06.541Z,48.83
2017-11-04T02:05:38.777Z,48.74
2017-11-04T02:06:10.961Z,48.64
2017-11-04T02:06:43.168Z,48.93
2017-11-04T02:07:15.166Z,48.64
2017-11-04T02:07:47.324Z,48.93
2017-11-04T02:08:19.368Z,48.54
2017-11-04T02:08:51.510Z,48.83
2017-11-04T02:09:23.695Z,48.64
2017-11-04T02:09:55.757Z,48.64
2017-11-04T02:10:27.779Z,48.64
2017-11-04T02:10:59.932Z,48.64
2017-11-04T02:11:32.183Z,48.64
2017-11-04T02:12:04.429Z,48.83
2017-11-04T02:12:36.579Z,48.64
2017-11-04T02:13:08.717Z,48.54
2017-11-04T02:13:40.891Z,48.64
2017-11-04T02:14:13.060Z,48.64
2017-11-04T02:14:46.029Z,48.74
2017-11-04T02:15:18.169Z,48.54
2017-11-04T02:15:50.286Z,48.64
2017-11-04T02:16:22.456Z,48.64
2017-11-04T02:16:54.751Z,48.44
2017-11-04T02:17:26.875Z,48.74
2017-11-04T02:17:59.074Z,48.64
2017-11-04T02:18:31.166Z,48.44
2017-11-04T02:19:03.220Z,48.74
2017-11-04T02:19:35.482Z,48.74
2017-11-04T02:20:07.605Z,48.54
2017-11-04T02:20:39.723Z,48.64
2017-11-04T02:21:11.902Z,48.64
2017-11-04T02:21:44.127Z,48.64
2017-11-04T02:22:16.220Z,48.64
2017-11-04T02:22:49.018Z,48.74
2017-11-04T02:23:21.112Z,48.64
2017-11-04T02:23:53.320Z,48.74
2017-11-04T02:24:25.500Z,48.64
2017-11-04T02:24:57.584Z,48.64
2017-11-04T02:25:29.706Z,48.74
2017-11-04T02:26:01.856Z,48.64
2017-11-04T02:26:33.937Z,48.64
2017-11-04T02:27:06.170Z,48.35
2017-11-04T02:27:38.252Z,48.44
2017-11-04T02:28:10.388Z,48.35
2017-11-04T02:28:42.710Z,48.64
2017-11-04T02:29:14.827Z,48.54
2017-11-04T02:29:46.954Z,48.64
2017-11-04T02:30:18.967Z,48.64
2017-11-04T02:30:51.095Z,48.54
2017-11-04T02:31:23.233Z,48.35
2017-11-04T02:31:55.430Z,48.54
2017-11-04T02:32:27.556Z,48.44
2017-11-04T02:32:59.741Z,48.35
2017-11-04T02:33:31.880Z,48.44
2017-11-04T02:34:04.014Z,48.25
2017-11-04T02:34:36.111Z,48.74
2017-11-04T02:35:08.343Z,48.25
2017-11-04T02:35:41.517Z,48.54
2017-11-04T02:36:13.662Z,48.44
2017-11-04T02:36:45.858Z,48.54
2017-11-04T02:37:17.977Z,48.35
2017-11-04T02:37:50.233Z,48.25
2017-11-04T02:38:22.312Z,48.44
2017-11-04T02:38:54.500Z,48.54
2017-11-04T02:39:26.647Z,48.54
2017-11-04T02:39:58.729Z,48.44
2017-11-04T02:40:30.859Z,48.44
2017-11-04T02:41:02.931Z,48.44
2017-11-04T02:41:35.020Z,48.44
2017-11-04T02:42:07.202Z,48.35
2017-11-04T02:42:39.469Z,48.44
2017-11-04T02:43:11.697Z,48.16
2017-11-04T02:43:43.915Z,48.54
2017-11-04T02:44:16.136Z,48.54
2017-11-04T02:44:48.287Z,48.54
2017-11-04T02:45:20.416Z,48.44
2017-11-04T02:45:52.635Z,48.25
2017-11-04T02:46:24.730Z,48.25
2017-11-04T02:46:56.823Z,48.44
2017-11-04T02:47:28.903Z,48.44
2017-11-04T02:48:01.025Z,48.44
2017-11-04T02:48:33.084Z,48.44
2017-11-04T02:49:05.226Z,48.44
2017-11-04T02:49:37.363Z,48.44
2017-11-04T02:50:09.445Z,48.54
2017-11-04T02:50:41.703Z,48.35
2017-11-04T02:51:13.814Z,48.54
2017-11-04T02:51:46.030Z,48.44
2017-11-04T02:52:18.106Z,48.25
2017-11-04T02:52:50.242Z,48.35
2017-11-04T02:53:22.381Z,48.35
2017-11-04T02:53:54.437Z,48.25
2017-11-04T02:54:26.624Z,48.25
2017-11-04T02:54:58.882Z,48.25
2017-11-04T02:55:30.971Z,48.25
2017-11-04T02:56:03.049Z,48.35
2017-11-04T02:56:35.261Z,48.25
2017-11-04T02:57:07.397Z,48.35
2017-11-04T02:57:39.592Z,48.16
2017-11-04T02:58:11.847Z,48.25
2017-11-04T02:58:43.928Z,48.16
2017-11-04T02:59:16.002Z,48.16
2017-11-04T02:59:48.025Z,48.25
2017-11-04T03:00:20.048Z,48.25
2017-11-04T03:00:52.192Z,48.25
2017-11-04T03:01:24.275Z,48.25
2017-11-04T03:01:56.363Z,48.25
2017-11-04T03:02:28.615Z,48.25
2017-11-04T03:03:00.796Z,48.35
2017-11-04T03:03:32.784Z,48.16
2017-11-04T03:04:04.806Z,48.25
2017-11-04T03:04:36.886Z,48.06
2017-11-04T03:05:09.084Z,48.16
2017-11-04T03:05:41.288Z,48.16
2017-11-04T03:06:13.591Z,48.25
2017-11-04T03:06:45.629Z,48.25
2017-11-04T03:07:17.926Z,48.16
2017-11-04T03:07:50.116Z,48.16
2017-11-04T03:08:22.322Z,48.16
2017-11-04T03:08:54.410Z,48.35
2017-11-04T03:09:26.539Z,48.16
2017-11-04T03:09:58.628Z,48.16
2017-11-04T03:10:30.760Z,48.16
2017-11-04T03:11:02.928Z,48.16
2017-11-04T03:11:35.123Z,48.25
2017-11-04T03:12:07.143Z,48.25
2017-11-04T03:12:39.263Z,48.35
2017-11-04T03:13:11.426Z,48.16
2017-11-04T03:13:43.512Z,48.35
2017-11-04T03:14:15.683Z,48.25
2017-11-04T03:14:47.819Z,48.06
2017-11-04T03:15:19.911Z,48.16
2017-11-04T03:15:52.040Z,48.06
2017-11-04T03:16:24.176Z,48.06
2017-11-04T03:16:56.214Z,48.06
2017-11-04T03:17:28.381Z,47.96
2017-11-04T03:18:00.642Z,48.06
2017-11-04T03:18:32.836Z,47.87
2017-11-04T03:19:05.053Z,48.16
2017-11-04T03:19:37.815Z,48.16
2017-11-04T03:20:10.590Z,47.87
2017-11-04T03:20:42.709Z,48.06
2017-11-04T03:21:14.789Z,48.06
2017-11-04T03:21:46.844Z,47.96
2017-11-04T03:22:18.921Z,47.87
2017-11-04T03:22:51.108Z,47.87
2017-11-04T03:23:23.183Z,47.77
2017-11-04T03:23:55.328Z,48.06
2017-11-04T03:24:27.453Z,47.87
2017-11-04T03:24:59.586Z,47.87
2017-11-04T03:25:31.772Z,48.06
2017-11-04T03:26:03.854Z,47.96
2017-11-04T03:26:36.033Z,47.77
2017-11-04T03:27:08.234Z,47.96
2017-11-04T03:27:40.321Z,48.06
2017-11-04T03:28:12.394Z,47.96
2017-11-04T03:28:44.650Z,47.96
2017-11-04T03:29:16.795Z,47.96
2017-11-04T03:29:48.910Z,47.87
2017-11-04T03:30:21.176Z,47.96
2017-11-04T03:30:53.196Z,47.96
2017-11-04T03:31:25.324Z,47.77
2017-11-04T03:31:57.367Z,48.06
2017-11-04T03:32:29.551Z,47.96
2017-11-04T03:33:01.813Z,47.96
2017-11-04T03:33:33.990Z,47.77
2017-11-04T03:34:06.204Z,47.87
2017-11-04T03:34:38.564Z,47.87
2017-11-04T03:35:10.715Z,47.96
2017-11-04T03:35:42.806Z,47.96
2017-11-04T03:36:14.997Z,47.87
2017-11-04T03:36:47.215Z,47.87
2017-11-04T03:37:19.456Z,47.87
2017-11-04T03:37:51.600Z,47.77
2017-11-04T03:38:23.644Z,47.77
2017-11-04T03:38:55.729Z,47.96
2017-11-04T03:39:27.823Z,47.77
2017-11-04T03:39:59.903Z,47.87
2017-11-04T03:40:31.997Z,47.87
2017-11-04T03:41:04.116Z,47.87
2017-11-04T03:41:36.313Z,47.87
2017-11-04T03:42:08.580Z,47.96
2017-11-04T03:42:40.755Z,47.77
2017-11-04T03:43:12.972Z,47.77
2017-11-04T03:43:45.049Z,47.67
2017-11-04T03:44:17.179Z,47.87
2017-11-04T03:44:49.351Z,47.77
2017-11-04T03:45:21.438Z,47.87
2017-11-04T03:45:53.634Z,47.87
2017-11-04T03:46:25.842Z,47.87
2017-11-04T03:46:58.029Z,47.67
2017-11-04T03:47:30.259Z,47.7
2017-11-04T03:48:02.340Z,47.67
2017-11-04T03:48:34.580Z,47.67
2017-11-04T03:49:06.656Z,47.77
2017-11-04T03:49:38.723Z,47.8
2017-11-04T03:50:10.915Z,47.58
2017-11-04T03:50:43.046Z,47.67
2017-11-04T03:51:15.301Z,47.58
2017-11-04T03:51:47.448Z,47.5
2017-11-04T03:52:19.679Z,47.67
2017-11-04T03:52:51.832Z,47.87
2017-11-04T03:53:23.887Z,47.58
2017-11-04T03:53:55.975Z,47.67
2017-11-04T03:54:28.201Z,47.77
2017-11-04T03:55:00.320Z,47.67
2017-11-04T03:55:32.571Z,47.58
2017-11-04T03:56:04.787Z,47.77
2017-11-04T03:56:36.995Z,47.48
2017-11-04T03:57:09.244Z,47.7
2017-11-04T03:57:41.391Z,47.58
2017-11-04T03:58:13.633Z,47.67
2017-11-04T03:58:45.776Z,47.67
2017-11-04T03:59:17.886Z,47.67
2017-11-04T03:59:50.103Z,47.8
2017-11-04T04:00:22.355Z,47.58
2017-11-04T04:00:54.487Z,47.87
2017-11-04T04:01:26.560Z,47.58
2017-11-04T04:01:58.700Z,47.58
2017-11-04T04:02:30.715Z,47.58
2017-11-04T04:03:02.914Z,47.67
2017-11-04T04:03:35.118Z,47.48
2017-11-04T04:04:07.241Z,47.58
2017-11-04T04:04:39.383Z,47.67
2017-11-04T04:05:11.639Z,47.58
2017-11-04T04:05:43.781Z,47.58
2017-11-04T04:06:15.971Z,47.48
2017-11-04T04:06:48.176Z,47.58
2017-11-04T04:07:20.256Z,47.48
2017-11-04T04:07:52.598Z,47.41
2017-11-04T04:08:24.906Z,47.58
2017-11-04T04:08:57.086Z,47.48
2017-11-04T04:09:29.112Z,47.48
2017-11-04T04:10:01.232Z,47.5
2017-11-04T04:10:33.283Z,47.58
2017-11-04T04:11:05.376Z,47.58
2017-11-04T04:11:37.530Z,47.38
2017-11-04T04:12:09.630Z,47.38
2017-11-04T04:12:41.714Z,47.38
2017-11-04T04:13:13.869Z,47.38
2017-11-04T04:13:46.112Z,47.41
2017-11-04T04:14:18.329Z,47.58
2017-11-04T04:14:50.990Z,47.19
2017-11-04T04:15:23.120Z,47.48
2017-11-04T04:15:55.309Z,47.58
2017-11-04T04:16:27.443Z,47.5
2017-11-04T04:16:59.578Z,47.5
2017-11-04T04:17:31.769Z,47.48
2017-11-04T04:18:03.963Z,47.58
2017-11-04T04:18:35.999Z,47.58
2017-11-04T04:19:08.196Z,47.48
2017-11-04T04:19:40.271Z,47.29
2017-11-04T04:20:12.421Z,47.38
2017-11-04T04:20:44.581Z,47.29
2017-11-04T04:21:16.751Z,47.29
2017-11-04T04:21:48.907Z,47.38
2017-11-04T04:22:20.925Z,47.48
2017-11-04T04:22:53.015Z,47.29
2017-11-04T04:23:25.215Z,47.48
2017-11-04T04:23:57.286Z,47.48
2017-11-04T04:24:29.362Z,47.48
2017-11-04T04:25:01.453Z,47.29
2017-11-04T04:25:33.553Z,47.29
2017-11-04T04:26:05.698Z,47.41
2017-11-04T04:26:37.922Z,47.48
2017-11-04T04:27:10.053Z,47.38
2017-11-04T04:27:42.190Z,47.38
2017-11-04T04:28:14.264Z,47.48
2017-11-04T04:28:46.362Z,47.29
2017-11-04T04:29:18.556Z,47.29
2017-11-04T04:29:50.636Z,47.38
2017-11-04T04:30:22.910Z,47.29
2017-11-04T04:30:55.042Z,47.48
2017-11-04T04:31:27.139Z,47.41
2017-11-04T04:31:59.278Z,47.29
2017-11-04T04:32:31.310Z,47.19
2017-11-04T04:33:03.388Z,47.22
2017-11-04T04:33:35.512Z,47.22
2017-11-04T04:34:07.702Z,47.19
2017-11-04T04:34:39.789Z,47.22
2017-11-04T04:35:11.943Z,47
2017-11-04T04:35:44.070Z,47.09
2017-11-04T04:36:16.271Z,47.31
2017-11-04T04:36:48.292Z,47.12
2017-11-04T04:37:20.548Z,47.29
2017-11-04T04:37:52.692Z,47.12
2017-11-04T04:38:24.731Z,46.81
2017-11-04T04:38:57.019Z,47
2017-11-04T04:39:29.938Z,47.19
2017-11-04T04:40:02.256Z,47.41
2017-11-04T04:40:34.391Z,47
2017-11-04T04:41:06.555Z,47.02
2017-11-04T04:41:38.797Z,47.02
2017-11-04T04:42:11.046Z,47.29
2017-11-04T04:42:43.142Z,47.02
2017-11-04T04:43:15.440Z,47.02
2017-11-04T04:43:47.578Z,47.31
2017-11-04T04:44:19.698Z,47.22
2017-11-04T04:44:51.763Z,47.12
2017-11-04T04:45:23.842Z,47.22
2017-11-04T04:45:56.049Z,46.83
2017-11-04T04:46:28.189Z,47.12
2017-11-04T04:47:00.443Z,47.31
2017-11-04T04:47:32.562Z,47.22
2017-11-04T04:48:04.815Z,47.22
2017-11-04T04:48:36.998Z,47.12
2017-11-04T04:49:09.149Z,47.12
2017-11-04T04:49:41.179Z,47.12
2017-11-04T04:50:13.380Z,47.12
2017-11-04T04:50:45.562Z,47.12
2017-11-04T04:51:17.641Z,47.12
2017-11-04T04:51:49.670Z,47.12
2017-11-04T04:52:21.885Z,47.02
2017-11-04T04:52:54.095Z,47.02
2017-11-04T04:53:26.223Z,47.12
2017-11-04T04:53:58.429Z,47.22
2017-11-04T04:54:30.556Z,47.02
2017-11-04T04:55:02.829Z,47.02
2017-11-04T04:55:35.037Z,47.02
2017-11-04T04:56:07.265Z,47.12
2017-11-04T04:56:39.368Z,47.02
2017-11-04T04:57:11.550Z,47.02
2017-11-04T04:57:43.708Z,47.12
2017-11-04T04:58:15.832Z,47.12
2017-11-04T04:58:48.036Z,47.12
2017-11-04T04:59:20.174Z,47.22
2017-11-04T04:59:52.263Z,47.22
2017-11-04T05:00:24.329Z,47.22
2017-11-04T05:00:56.423Z,46.64
2017-11-04T05:01:28.564Z,47.12
2017-11-04T05:02:00.578Z,46.92
2017-11-04T05:02:32.660Z,46.73
2017-11-04T05:03:04.792Z,46.92
2017-11-04T05:03:36.927Z,47.22
2017-11-04T05:04:09.014Z,46.73
2017-11-04T05:04:41.154Z,46.73
2017-11-04T05:05:13.289Z,46.73
2017-11-04T05:05:45.317Z,46.73
2017-11-04T05:06:17.410Z,46.64
2017-11-04T05:06:49.539Z,46.83
2017-11-04T05:07:21.737Z,47.22
2017-11-04T05:07:53.881Z,46.73
2017-11-04T05:08:26.029Z,46.44
2017-11-04T05:08:58.262Z,46.73
2017-11-04T05:09:30.457Z,46.92
2017-11-04T05:10:02.566Z,46.73
2017-11-04T05:10:34.747Z,46.73
2017-11-04T05:11:06.935Z,47.02
2017-11-04T05:11:39.006Z,46.83
2017-11-04T05:12:11.138Z,46.83
2017-11-04T05:12:43.428Z,46.83
2017-11-04T05:13:15.660Z,46.92
2017-11-04T05:13:47.737Z,46.73
2017-11-04T05:14:19.880Z,46.92
2017-11-04T05:14:51.963Z,46.64
2017-11-04T05:15:24.081Z,46.73
2017-11-04T05:15:56.108Z,46.73
2017-11-04T05:16:28.282Z,46.64
2017-11-04T05:17:00.424Z,46.73
2017-11-04T05:17:32.542Z,46.83
2017-11-04T05:18:04.801Z,46.73
2017-11-04T05:18:36.954Z,46.73
2017-11-04T05:19:09.094Z,46.73
2017-11-04T05:19:41.229Z,46.83
2017-11-04T05:20:13.240Z,46.73
2017-11-04T05:20:45.358Z,46.83
2017-11-04T05:21:17.382Z,46.73
2017-11-04T05:21:49.553Z,46.73
2017-11-04T05:22:21.656Z,46.83
2017-11-04T05:22:53.855Z,46.73
2017-11-04T05:23:25.953Z,46.92
2017-11-04T05:23:58.028Z,46.83
2017-11-04T05:24:30.166Z,46.83
2017-11-04T05:25:02.348Z,46.64
2017-11-04T05:25:34.435Z,46.73
2017-11-04T05:26:06.506Z,46.73
2017-11-04T05:26:38.630Z,46.92
2017-11-04T05:27:10.938Z,46.73
2017-11-04T05:27:42.981Z,46.73
2017-11-04T05:28:15.327Z,46.73
2017-11-04T05:28:47.398Z,46.54
2017-11-04T05:29:19.587Z,46.73
2017-11-04T05:29:51.627Z,46.73
2017-11-04T05:30:23.810Z,46.83
2017-11-04T05:30:56.006Z,46.73
2017-11-04T05:31:28.081Z,46.73
2017-11-04T05:32:00.169Z,47.02
2017-11-04T05:32:32.332Z,46.83
2017-11-04T05:33:04.540Z,46.92
2017-11-04T05:33:36.575Z,46.34
2017-11-04T05:34:08.593Z,47.02
2017-11-04T05:34:40.607Z,46.64
2017-11-04T05:35:13.475Z,46.92
2017-11-04T05:35:45.653Z,46.73
2017-11-04T05:36:17.913Z,46.64
2017-11-04T05:36:50.106Z,46.92
2017-11-04T05:37:22.204Z,46.54
2017-11-04T05:37:54.390Z,46.44
2017-11-04T05:38:26.466Z,46.83
2017-11-04T05:38:58.676Z,47.12
2017-11-04T05:39:30.889Z,46.64
2017-11-04T05:40:02.972Z,46.54
2017-11-04T05:40:35.129Z,46.92
2017-11-04T05:41:07.263Z,46.73
2017-11-04T05:41:39.881Z,46.73
2017-11-04T05:42:12.076Z,46.73
2017-11-04T05:42:44.190Z,46.73
2017-11-04T05:43:16.272Z,46.25
2017-11-04T05:43:48.461Z,46.54
2017-11-04T05:44:20.661Z,46.64
2017-11-04T05:44:52.826Z,46.64
2017-11-04T05:45:24.910Z,46.44
2017-11-04T05:45:56.995Z,46.64
2017-11-04T05:46:29.144Z,46.44
2017-11-04T05:47:01.266Z,46.54
2017-11-04T05:47:33.911Z,46.64
2017-11-04T05:48:06.060Z,46.73
2017-11-04T05:48:38.181Z,46.64
2017-11-04T05:49:10.258Z,46.44
2017-11-04T05:49:42.438Z,46.44
2017-11-04T05:50:14.528Z,46.34
2017-11-04T05:50:46.745Z,46.44
2017-11-04T05:51:18.942Z,46.34
2017-11-04T05:51:50.955Z,46.34
2017-11-04T05:52:23.135Z,46.34
2017-11-04T05:52:55.160Z,46.34
2017-11-04T05:53:27.173Z,46.34
2017-11-04T05:53:59.251Z,46.44
2017-11-04T05:54:31.422Z,46.44
2017-11-04T05:55:04.176Z,46.44
2017-11-04T05:55:36.347Z,46.44
2017-11-04T05:56:08.664Z,46.54
2017-11-04T05:56:40.875Z,46.34
2017-11-04T05:57:13.099Z,46.44
2017-11-04T05:57:45.224Z,46.34
2017-11-04T05:58:17.308Z,46.44
2017-11-04T05:58:49.528Z,46.44
2017-11-04T05:59:21.658Z,46.54
2017-11-04T05:59:53.730Z,46.44
2017-11-04T06:00:25.895Z,46.64
2017-11-04T06:00:58.003Z,46.44
2017-11-04T06:01:30.169Z,46.25
2017-11-04T06:02:02.228Z,46.15
2017-11-04T06:02:34.377Z,46.25
2017-11-04T06:03:06.446Z,46.34
2017-11-04T06:03:38.585Z,46.44
2017-11-04T06:04:10.804Z,46.44
2017-11-04T06:04:42.893Z,46.25
2017-11-04T06:05:15.058Z,46.34
2017-11-04T06:05:47.069Z,46.34
2017-11-04T06:06:19.086Z,46.64
2017-11-04T06:06:51.205Z,46.25
2017-11-04T06:07:23.444Z,46.15
2017-11-04T06:07:55.572Z,46.34
2017-11-04T06:08:27.655Z,46.34
2017-11-04T06:08:59.782Z,46.15
2017-11-04T06:09:31.974Z,46.06
2017-11-04T06:10:04.173Z,46.34
2017-11-04T06:10:36.231Z,46.54
2017-11-04T06:11:08.361Z,46.44
2017-11-04T06:11:40.561Z,46.15
2017-11-04T06:12:12.690Z,46.44
2017-11-04T06:12:44.772Z,46.15
2017-11-04T06:13:16.915Z,46.44
2017-11-04T06:13:49.127Z,45.96
2017-11-04T06:14:21.212Z,46.15
2017-11-04T06:14:53.303Z,46.15
2017-11-04T06:15:25.377Z,45.96
2017-11-04T06:15:57.522Z,46.25
2017-11-04T06:16:29.650Z,46.64
2017-11-04T06:17:01.786Z,46.06
2017-11-04T06:17:34.631Z,46.64
2017-11-04T06:18:06.822Z,46.15
2017-11-04T06:18:38.902Z,46.64
2017-11-04T06:19:10.989Z,46.06
2017-11-04T06:19:43.125Z,46.73
2017-11-04T06:20:15.295Z,46.25
2017-11-04T06:20:47.520Z,46.73
2017-11-04T06:21:19.615Z,46.15
2017-11-04T06:21:51.803Z,46.64
2017-11-04T06:22:23.951Z,46.64
2017-11-04T06:22:56.055Z,46.25
2017-11-04T06:23:28.248Z,46.44
2017-11-04T06:24:00.328Z,46.44
2017-11-04T06:24:32.428Z,46.25
2017-11-04T06:25:05.494Z,46.34
2017-11-04T06:25:37.646Z,46.34
2017-11-04T06:26:09.946Z,46.54
2017-11-04T06:26:42.084Z,46.44
2017-11-04T06:27:14.282Z,46.34
2017-11-04T06:27:46.555Z,46.73
2017-11-04T06:28:18.589Z,46.34
2017-11-04T06:28:50.662Z,46.73
2017-11-04T06:29:22.858Z,46.54
2017-11-04T06:29:54.948Z,46.25
2017-11-04T06:30:27.191Z,46.54
2017-11-04T06:30:59.346Z,46.83
2017-11-04T06:31:31.577Z,46.25
2017-11-04T06:32:03.774Z,46.15
2017-11-04T06:32:35.953Z,46.44
2017-11-04T06:33:08.095Z,46.44
2017-11-04T06:33:40.327Z,46.54
2017-11-04T06:34:12.348Z,46.44
2017-11-04T06:34:44.381Z,46.15
2017-11-04T06:35:16.615Z,46.44
2017-11-04T06:35:48.749Z,46.54
2017-11-04T06:36:20.829Z,46.44
2017-11-04T06:36:53.081Z,46.54
2017-11-04T06:37:25.183Z,46.54
2017-11-04T06:37:57.378Z,46.54
2017-11-04T06:38:30.222Z,46.54
2017-11-04T06:39:02.308Z,46.25
2017-11-04T06:39:34.537Z,46.44
2017-11-04T06:40:06.565Z,46.34
2017-11-04T06:40:38.763Z,46.44
2017-11-04T06:41:11.081Z,46.44
2017-11-04T06:41:43.257Z,46.34
2017-11-04T06:42:15.360Z,46.44
2017-11-04T06:42:47.519Z,46.34
2017-11-04T06:43:19.664Z,46.34
2017-11-04T06:43:51.827Z,46.44
2017-11-04T06:44:24.052Z,46.34
2017-11-04T06:44:56.258Z,46.34
2017-11-04T06:45:28.362Z,46.34
2017-11-04T06:46:00.371Z,46.44
2017-11-04T06:46:32.543Z,46.44
2017-11-04T06:47:04.622Z,46.34
2017-11-04T06:47:36.668Z,46.34
2017-11-04T06:48:08.742Z,46.44
2017-11-04T06:48:40.886Z,46.34
2017-11-04T06:49:13.049Z,46.44
2017-11-04T06:49:45.266Z,46.34
2017-11-04T06:50:17.470Z,46.34
2017-11-04T06:50:49.601Z,45.96
2017-11-04T06:51:21.687Z,46.34
2017-11-04T06:51:53.889Z,46.34
2017-11-04T06:52:26.074Z,46.44
2017-11-04T06:52:58.313Z,46.34
2017-11-04T06:53:30.472Z,46.34
2017-11-04T06:54:02.645Z,45.96
2017-11-04T06:54:34.804Z,46.34
2017-11-04T06:55:06.886Z,46.15